Airfield :
LOGIN :

Register | Disclaimer

   EN    FR    IT 

 










Legend :    VFR   Marginal VFR   IFR   Intensive IFR   Very Intensive IFR
Visi :
Ceiling :
>= 8 km
>= 3000ft
5 to 8 km
1000 to 3000 ft
1500m to 5 km
500 to 1000 ft
800 to 1500m
200 to 500 ft
< 800m
< 200 ft
Symbols :   Thunderstorms  Fog  Heavy snow  Heavy precipitations  Wind > 20 kt
SIGMETs :     Misc.  Thunderstorms  Icing  Turbulence  Mountain Waves  Volcanic Ashes






- Airport Elevation : 29 ft


LIRM - Grazzanise Caserta

CURRENT METAR :
  • 272355Z 32005KT 9999 SCT070 23/17 Q1010 RMK OVC BKN200 VIS MIN 9999 WIND THR06 344KT BLU

EXPIRED METARs :
  • 272255Z 34005KT 9999 SCT070 23/19 Q1009
  • 272155Z 08002KT 9999 SCT070 24/20 Q1011

TAF TAF LIRM
Valid from the 28 at 00:00 until the 28 at 09:00 UTC


272300Z 2800/2809 08006KT 9999 SCT050



MET'MAP, your aeronautical weather chart ! - Copyright ORBIFLY December 2007 - Disclaimer

ORBIFLY MET'MAP TEAM :

Programming & Development : Alexandra Zaïnal
Original concept : Baudouin d'Aumeries
Technical & hardware support : Manuel Goepfert
Assistance : Marc-Olivier Méhu

Contact : metmap@orbifly.com




SOURCES & CREDITS :

   NOAA